Time;durP1;ratioP1;P1;durP2;ratioP2;P2;SDS_P1;SDS_P2;PMS_P1;PMS_P2;Temp;Humidity;BMP_temperature;BMP_pressure;BME280_temperature;BME280_humidity;BME280_pressure;Samples;Min_cycle;Max_cycle;Signal;HPM_P1;HPM_P2
2022/06/11 00:01:25;;;;;;;1.70;1.47;;;15.00;98.00;;;;;;5017023;28;20998;-69
2022/06/11 00:03:55;;;;;;;3.17;1.97;;;15.10;98.00;;;;;;5034785;28;20493;-69
2022/06/11 00:06:25;;;;;;;1.70;1.30;;;15.20;98.00;;;;;;5034640;28;20462;-69
2022/06/11 00:08:52;;;;;;;1.70;1.53;;;15.00;98.00;;;;;;5034584;28;20978;-69
2022/06/11 00:11:20;;;;;;;1.80;1.47;;;14.90;98.00;;;;;;5034730;28;20782;-70
2022/06/11 00:13:49;;;;;;;3.50;2.43;;;14.90;98.00;;;;;;5034489;28;20462;-69
2022/06/11 00:16:18;;;;;;;1.80;1.70;;;14.90;98.00;;;;;;5034401;28;20513;-69
2022/06/11 00:18:47;;;;;;;2.03;1.30;;;14.80;98.00;;;;;;5016942;28;20465;-69
2022/06/11 00:21:15;;;;;;;1.90;1.40;;;14.60;98.00;;;;;;5017461;28;20454;-69
2022/06/11 00:23:43;;;;;;;3.27;1.90;;;14.70;98.00;;;;;;5034480;28;20959;-69
2022/06/11 00:26:12;;;;;;;2.70;1.73;;;14.50;98.00;;;;;;5034488;28;20456;-69
2022/06/11 00:28:40;;;;;;;4.80;2.33;;;14.60;98.00;;;;;;5034035;28;20461;-70
2022/06/11 00:31:10;;;;;;;2.10;1.53;;;14.70;98.00;;;;;;5034208;28;21060;-70
2022/06/11 00:33:37;;;;;;;1.73;1.70;;;14.70;98.00;;;;;;5034174;28;20458;-70
2022/06/11 00:36:06;;;;;;;1.93;1.50;;;14.80;98.00;;;;;;5033822;28;20893;-69
2022/06/11 00:38:34;;;;;;;2.23;1.60;;;14.70;98.00;;;;;;5034244;28;20463;-69
2022/06/11 00:41:01;;;;;;;1.33;1.33;;;14.60;98.00;;;;;;5033832;28;20841;-70
2022/06/11 00:43:29;;;;;;;3.73;2.10;;;14.50;98.00;;;;;;5033925;28;20455;-69
2022/06/11 00:46:01;;;;;;;5.07;1.67;;;14.50;98.00;;;;;;5033872;28;20458;-69
2022/06/11 00:48:33;;;;;;;1.60;1.40;;;14.50;98.00;;;;;;5033947;28;20512;-70
2022/06/11 00:51:05;;;;;;;1.40;1.30;;;14.50;98.00;;;;;;5033816;28;20463;-69
2022/06/11 00:53:38;;;;;;;2.23;1.60;;;14.40;98.00;;;;;;5033769;28;20462;-69
2022/06/11 00:56:11;;;;;;;1.80;1.57;;;14.30;98.00;;;;;;5016287;28;20513;-70
2022/06/11 00:58:42;;;;;;;2.00;1.60;;;14.40;98.00;;;;;;5033486;28;20467;-69
2022/06/11 01:01:09;;;;;;;3.53;1.60;;;14.30;98.00;;;;;;5033568;28;20460;-69
2022/06/11 01:03:41;;;;;;;2.47;1.97;;;14.20;98.00;;;;;;5033710;28;20458;-69
2022/06/11 01:06:21;;;;;;;1.87;1.57;;;14.10;98.00;;;;;;5033446;28;20450;-69
2022/06/11 01:09:00;;;;;;;1.97;1.50;;;14.10;98.00;;;;;;5033479;28;20935;-69
2022/06/11 01:11:49;;;;;;;3.20;2.13;;;14.10;98.00;;;;;;5033484;28;20811;-69
2022/06/11 01:14:26;;;;;;;1.53;1.23;;;14.00;98.00;;;;;;5033553;28;20552;-69
2022/06/11 01:17:20;;;;;;;1.97;1.50;;;14.00;98.00;;;;;;5033459;28;20501;-69
2022/06/11 01:20:25;;;;;;;1.53;1.30;;;13.90;98.00;;;;;;5033557;28;20508;-69
2022/06/11 01:23:40;;;;;;;2.50;1.57;;;14.10;98.00;;;;;;4972460;28;20496;-70
2022/06/11 01:26:31;;;;;;;1.50;1.30;;;14.30;98.00;;;;;;5001466;28;20461;-69
2022/06/11 01:29:20;;;;;;;1.50;1.30;;;14.20;98.00;;;;;;5032938;28;20967;-70
2022/06/11 01:31:56;;;;;;;1.37;1.33;;;14.20;98.00;;;;;;5033241;28;20466;-69
2022/06/11 01:34:32;;;;;;;2.17;1.50;;;14.00;98.00;;;;;;5032958;28;20458;-69
2022/06/11 01:37:05;;;;;;;1.50;1.47;;;13.90;98.00;;;;;;5032907;28;20468;-69
2022/06/11 01:39:40;;;;;;;2.23;1.57;;;13.80;98.00;;;;;;5033101;28;20457;-70
2022/06/11 01:42:17;;;;;;;2.47;1.80;;;13.80;98.00;;;;;;5032647;28;20461;-69
2022/06/11 01:44:45;;;;;;;1.90;1.43;;;13.60;98.00;;;;;;5032983;28;20850;-69
2022/06/11 01:47:16;;;;;;;2.80;1.63;;;13.50;98.00;;;;;;5032543;28;20457;-69
2022/06/11 01:49:46;;;;;;;2.07;1.57;;;13.40;98.00;;;;;;5032768;28;20451;-69
2022/06/11 01:53:00;;;;;;;2.37;1.73;;;13.40;98.00;;;;;;5032592;28;20468;-70
2022/06/11 01:55:40;;;;;;;2.17;1.67;;;13.30;98.00;;;;;;5027081;28;20496;-69
2022/06/11 01:58:27;;;;;;;2.07;1.50;;;13.30;98.00;;;;;;5032716;28;20936;-70
2022/06/11 02:01:04;;;;;;;1.87;1.70;;;13.30;98.00;;;;;;5032433;28;20461;-69
2022/06/11 02:03:38;;;;;;;1.83;1.40;;;13.30;98.00;;;;;;5032504;28;20469;-69
2022/06/11 02:06:21;;;;;;;1.60;1.37;;;13.40;98.00;;;;;;5032473;28;21006;-69
2022/06/11 02:09:08;;;;;;;1.60;1.33;;;13.40;98.00;;;;;;5032127;28;20468;-69
2022/06/11 02:11:40;;;;;;;1.73;1.33;;;13.40;98.00;;;;;;5015086;28;20455;-70
2022/06/11 02:14:13;;;;;;;2.83;1.63;;;13.50;98.00;;;;;;5032324;28;20457;-69
2022/06/11 02:16:45;;;;;;;2.43;1.53;;;13.40;98.00;;;;;;5032314;28;20497;-69
2022/06/11 02:19:20;;;;;;;2.03;1.40;;;13.30;98.00;;;;;;5032414;28;20480;-70
2022/06/11 02:21:51;;;;;;;1.30;1.30;;;13.40;98.00;;;;;;5032464;28;20457;-69
2022/06/11 02:24:22;;;;;;;2.20;1.50;;;13.40;98.00;;;;;;5032596;28;20990;-69
2022/06/11 02:26:53;;;;;;;1.97;1.73;;;13.30;98.00;;;;;;5032354;28;20760;-69
2022/06/11 02:29:23;;;;;;;2.10;1.70;;;13.20;98.00;;;;;;5032001;28;20463;-70
2022/06/11 02:31:53;;;;;;;1.57;1.50;;;13.30;98.00;;;;;;5032046;28;20467;-70
2022/06/11 02:34:25;;;;;;;1.93;1.80;;;13.20;98.00;;;;;;5014339;28;20950;-70
2022/06/11 02:36:58;;;;;;;5.50;1.70;;;13.10;98.00;;;;;;5031792;28;20497;-69
2022/06/11 02:39:25;;;;;;;1.60;1.50;;;13.10;98.00;;;;;;5032000;28;20463;-70
2022/06/11 02:41:54;;;;;;;2.43;1.57;;;13.00;98.00;;;;;;5031726;28;20469;-69
2022/06/11 02:44:21;;;;;;;2.00;1.60;;;12.90;98.00;;;;;;5031910;28;20488;-69
2022/06/11 02:46:50;;;;;;;2.03;1.30;;;12.90;98.00;;;;;;5031844;28;20456;-70
2022/06/11 02:49:22;;;;;;;1.43;1.10;;;12.90;98.00;;;;;;5032022;28;20883;-70
2022/06/11 02:51:53;;;;;;;1.57;1.50;;;12.90;98.00;;;;;;5031823;28;20519;-70
2022/06/11 02:54:22;;;;;;;1.90;1.30;;;13.00;98.00;;;;;;5031649;28;20477;-70
2022/06/11 02:56:51;;;;;;;2.13;1.70;;;13.00;98.00;;;;;;5031634;28;20556;-70
2022/06/11 02:59:20;;;;;;;1.53;1.53;;;13.00;98.00;;;;;;5031893;28;20462;-69
2022/06/11 03:01:48;;;;;;;2.33;1.70;;;13.00;98.00;;;;;;5031629;28;20957;-70
2022/06/11 03:04:19;;;;;;;1.40;1.23;;;13.00;98.00;;;;;;5031845;28;20469;-69
2022/06/11 03:06:47;;;;;;;1.63;1.40;;;12.90;98.00;;;;;;5013910;28;20467;-69
2022/06/11 03:09:19;;;;;;;2.33;1.40;;;12.90;98.00;;;;;;5031650;28;20484;-70
2022/06/11 03:11:46;;;;;;;1.93;1.60;;;12.80;98.00;;;;;;5031818;28;20466;-69
2022/06/11 03:14:14;;;;;;;1.77;1.40;;;12.80;98.00;;;;;;5031772;28;20522;-69
2022/06/11 03:16:42;;;;;;;1.90;1.87;;;12.70;98.00;;;;;;5014352;28;20510;-70
2022/06/11 03:19:11;;;;;;;1.30;1.30;;;12.60;98.00;;;;;;5031762;28;20456;-69
2022/06/11 03:21:39;;;;;;;1.77;1.47;;;12.60;98.00;;;;;;5031721;28;20457;-69
2022/06/11 03:24:07;;;;;;;1.67;1.33;;;12.70;98.00;;;;;;5031797;28;20464;-70
2022/06/11 03:26:36;;;;;;;1.77;1.30;;;12.70;98.00;;;;;;5031604;28;20470;-70
2022/06/11 03:29:04;;;;;;;2.03;1.30;;;12.80;98.00;;;;;;5031421;28;20470;-70
2022/06/11 03:31:32;;;;;;;1.47;1.33;;;12.80;98.00;;;;;;5031574;28;20481;-70
2022/06/11 03:33:59;;;;;;;1.77;1.70;;;12.90;98.00;;;;;;5031426;28;20453;-70
2022/06/11 03:36:26;;;;;;;2.50;1.43;;;12.90;98.00;;;;;;5031167;28;20494;-69
2022/06/11 03:38:53;;;;;;;1.60;1.40;;;12.80;98.00;;;;;;5031284;28;20464;-70
2022/06/11 03:41:22;;;;;;;1.43;1.20;;;12.70;98.00;;;;;;5031221;28;20458;-70
2022/06/11 03:43:50;;;;;;;2.33;1.70;;;12.60;98.00;;;;;;5031468;28;20512;-70
2022/06/11 03:46:20;;;;;;;1.70;1.63;;;12.60;98.00;;;;;;5031174;28;20450;-70
2022/06/11 03:48:48;;;;;;;2.23;2.03;;;12.60;98.00;;;;;;5031213;28;20461;-69
2022/06/11 03:51:15;;;;;;;2.70;1.80;;;12.60;98.00;;;;;;5034079;28;20458;-70
2022/06/11 03:53:43;;;;;;;2.17;1.53;;;12.60;98.00;;;;;;5035055;28;20827;-70
2022/06/11 03:56:11;;;;;;;2.23;1.90;;;12.70;98.00;;;;;;5017472;28;20496;-70
2022/06/11 03:58:40;;;;;;;1.63;1.50;;;12.70;98.00;;;;;;5035051;28;20812;-70
2022/06/11 04:01:19;;;;;;;1.83;1.30;;;12.80;98.00;;;;;;5034756;28;20459;-69
2022/06/11 04:03:52;;;;;;;1.40;1.37;;;12.80;98.00;;;;;;5034981;28;20449;-70
2022/06/11 04:06:22;;;;;;;1.70;1.53;;;12.80;98.00;;;;;;5017886;28;20451;-69
2022/06/11 04:08:50;;;;;;;1.60;1.53;;;12.90;98.00;;;;;;5034697;28;20464;-70
2022/06/11 04:11:19;;;;;;;2.07;1.20;;;13.00;98.00;;;;;;5034783;28;20835;-69
2022/06/11 04:13:47;;;;;;;1.60;1.37;;;12.90;98.00;;;;;;5034626;28;20459;-70
2022/06/11 04:16:24;;;;;;;2.23;1.90;;;13.00;98.00;;;;;;5034524;28;20483;-70
2022/06/11 04:18:52;;;;;;;2.57;1.30;;;12.90;98.00;;;;;;5034688;28;20825;-70
2022/06/11 04:21:20;;;;;;;2.13;1.50;;;12.90;98.00;;;;;;5034625;28;20453;-69
2022/06/11 04:23:50;;;;;;;2.47;1.83;;;12.90;98.00;;;;;;5034477;28;20452;-70
2022/06/11 04:26:25;;;;;;;1.97;1.40;;;13.00;98.00;;;;;;5034496;28;20464;-69
2022/06/11 04:28:53;;;;;;;4.00;1.63;;;12.90;98.00;;;;;;5034157;28;20455;-71
2022/06/11 04:31:21;;;;;;;2.47;1.83;;;13.00;98.00;;;;;;5034288;28;20464;-70
2022/06/11 04:33:49;;;;;;;3.53;1.97;;;13.20;98.00;;;;;;5034141;28;20518;-71
2022/06/11 04:36:18;;;;;;;2.17;1.83;;;13.20;98.00;;;;;;5033804;28;20491;-70
2022/06/11 04:38:46;;;;;;;4.43;1.53;;;13.10;98.00;;;;;;5034062;28;20824;-70
2022/06/11 04:41:13;;;;;;;1.30;1.23;;;13.00;98.00;;;;;;5033848;28;20872;-69
2022/06/11 04:43:41;;;;;;;1.90;1.80;;;12.90;98.00;;;;;;5034135;28;20822;-69
2022/06/11 04:46:09;;;;;;;2.00;1.57;;;12.90;98.00;;;;;;5016330;28;20559;-69
2022/06/11 04:48:48;;;;;;;3.43;1.63;;;12.90;98.00;;;;;;5033938;28;20463;-70
2022/06/11 04:51:16;;;;;;;2.87;1.87;;;13.00;98.00;;;;;;5033754;28;20456;-70
2022/06/11 04:53:44;;;;;;;1.30;1.20;;;13.00;98.00;;;;;;5033900;28;20464;-70
2022/06/11 04:56:15;;;;;;;1.33;1.33;;;13.00;98.00;;;;;;5033597;28;20491;-70
2022/06/11 04:58:44;;;;;;;1.90;1.63;;;13.00;98.00;;;;;;5033745;28;20461;-71
2022/06/11 05:01:11;;;;;;;2.20;1.40;;;13.10;98.00;;;;;;5032864;28;20983;-71
2022/06/11 05:03:40;;;;;;;2.80;2.20;;;13.20;98.00;;;;;;5033635;28;20461;-70
2022/06/11 05:06:08;;;;;;;2.37;1.40;;;13.50;98.00;;;;;;5033583;28;20464;-69
2022/06/11 05:08:35;;;;;;;1.60;1.50;;;13.60;98.00;;;;;;5033753;28;20475;-69
2022/06/11 05:11:14;;;;;;;2.03;1.50;;;13.80;98.00;;;;;;5033519;28;20458;-69
2022/06/11 05:13:42;;;;;;;2.00;1.70;;;14.00;98.00;;;;;;5033613;28;20465;-70
2022/06/11 05:16:09;;;;;;;3.47;1.60;;;14.10;98.00;;;;;;5033343;28;20490;-71
2022/06/11 05:18:36;;;;;;;2.40;1.57;;;14.20;98.00;;;;;;5033606;28;20458;-70
2022/06/11 05:21:05;;;;;;;1.40;1.40;;;14.30;98.00;;;;;;5033309;28;20465;-69
2022/06/11 05:23:32;;;;;;;2.30;1.50;;;14.40;98.00;;;;;;5033726;28;20457;-70
2022/06/11 05:26:00;;;;;;;2.10;1.73;;;14.50;98.00;;;;;;5033255;28;20460;-69
2022/06/11 05:28:31;;;;;;;2.23;1.87;;;14.60;98.00;;;;;;5033420;28;20538;-70
2022/06/11 05:30:59;;;;;;;2.67;1.70;;;14.80;98.00;;;;;;5033003;28;20485;-70
2022/06/11 05:33:27;;;;;;;2.20;1.73;;;14.90;98.00;;;;;;5033281;28;20509;-69
2022/06/11 05:35:54;;;;;;;3.20;2.03;;;15.00;98.00;;;;;;5032548;28;20479;-69
2022/06/11 05:38:27;;;;;;;1.50;1.50;;;15.10;98.00;;;;;;5033003;28;20459;-70
2022/06/11 05:40:54;;;;;;;1.73;1.43;;;15.10;98.00;;;;;;5032862;28;20465;-69
2022/06/11 05:43:22;;;;;;;2.17;1.70;;;15.20;98.00;;;;;;5015182;28;20458;-69
2022/06/11 05:45:52;;;;;;;2.20;1.60;;;15.30;98.00;;;;;;5032439;28;20472;-70
2022/06/11 05:48:23;;;;;;;2.40;1.70;;;15.40;98.00;;;;;;5032483;28;20945;-71
2022/06/11 05:50:55;;;;;;;2.03;1.63;;;15.50;98.00;;;;;;5032032;28;20455;-70
2022/06/11 05:53:26;;;;;;;1.40;1.40;;;15.60;98.00;;;;;;5014671;28;20455;-69
2022/06/11 05:55:53;;;;;;;3.63;2.00;;;15.60;98.00;;;;;;5031696;28;21028;-69
2022/06/11 05:58:24;;;;;;;3.60;1.97;;;15.70;98.00;;;;;;5032134;28;20504;-70
2022/06/11 06:00:52;;;;;;;3.80;1.93;;;15.90;98.00;;;;;;5032555;28;20462;-70
2022/06/11 06:03:19;;;;;;;2.30;1.57;;;15.90;98.00;;;;;;5032712;28;20454;-71
2022/06/11 06:05:46;;;;;;;2.17;1.73;;;16.00;98.00;;;;;;5032456;28;20652;-70
2022/06/11 06:08:15;;;;;;;3.67;1.93;;;16.00;98.00;;;;;;5032497;28;20465;-72
2022/06/11 06:10:43;;;;;;;2.40;1.80;;;16.10;98.00;;;;;;5014960;28;20477;-72
2022/06/11 06:15:56;;;;;;;1.80;1.60;;;16.40;98.00;;;;;;5032389;28;20446;-73
2022/06/11 06:18:23;;;;;;;2.10;1.80;;;16.50;98.00;;;;;;5032436;28;20455;-72
2022/06/11 06:20:50;;;;;;;1.77;1.60;;;16.60;98.00;;;;;;5032422;28;20466;-73
2022/06/11 06:23:18;;;;;;;2.03;1.73;;;16.60;98.00;;;;;;5032400;28;20473;-72
2022/06/11 06:25:46;;;;;;;2.70;1.37;;;16.70;98.00;;;;;;5032507;28;21066;-73
2022/06/11 06:28:13;;;;;;;2.30;1.83;;;16.80;98.00;;;;;;5032307;28;20454;-73
2022/06/11 06:30:43;;;;;;;2.77;1.60;;;16.90;98.00;;;;;;5032351;28;20458;-72
2022/06/11 06:33:11;;;;;;;2.87;1.70;;;17.00;98.00;;;;;;5031872;28;20458;-72
2022/06/11 06:35:38;;;;;;;2.37;1.80;;;17.20;98.00;;;;;;5014600;28;20458;-72
2022/06/11 06:38:06;;;;;;;1.87;1.30;;;17.30;98.00;;;;;;5031590;28;20474;-73
2022/06/11 06:40:33;;;;;;;2.63;2.20;;;17.30;98.00;;;;;;5031710;28;20454;-73
2022/06/11 06:43:03;;;;;;;1.97;1.60;;;17.30;98.00;;;;;;5031848;28;20964;-72
2022/06/11 06:45:30;;;;;;;1.90;1.53;;;17.50;98.00;;;;;;5014349;28;20968;-73
2022/06/11 06:47:58;;;;;;;2.03;1.63;;;17.70;98.00;;;;;;5031690;28;20454;-73
2022/06/11 06:50:25;;;;;;;2.20;1.80;;;17.70;98.00;;;;;;4998174;28;20465;-72
2022/06/11 06:52:52;;;;;;;2.80;1.90;;;17.80;98.00;;;;;;5031651;28;20462;-72
2022/06/11 06:55:19;;;;;;;2.60;1.90;;;17.90;98.00;;;;;;5031535;28;20474;-72
2022/06/11 06:57:46;;;;;;;3.00;1.67;;;18.00;98.00;;;;;;5031446;28;20486;-72
2022/06/11 07:00:17;;;;;;;1.80;1.67;;;18.00;98.00;;;;;;5014289;28;20459;-72
2022/06/11 07:02:45;;;;;;;1.57;1.30;;;18.20;98.00;;;;;;5031586;28;20542;-73
2022/06/11 07:05:13;;;;;;;1.97;1.67;;;18.40;98.00;;;;;;5031398;28;20465;-72
2022/06/11 07:07:41;;;;;;;2.37;1.67;;;18.40;98.00;;;;;;5031567;28;20470;-72
2022/06/11 07:10:13;;;;;;;1.93;1.70;;;18.50;98.00;;;;;;5031714;28;20451;-72
2022/06/11 07:12:40;;;;;;;2.73;1.70;;;18.60;98.00;;;;;;5014795;28;20468;-72
2022/06/11 07:15:08;;;;;;;2.17;1.67;;;18.60;98.00;;;;;;5031471;28;20953;-72
2022/06/11 07:17:46;;;;;;;2.50;1.80;;;18.70;98.00;;;;;;5031382;28;20493;-72
2022/06/11 07:20:17;;;;;;;1.60;1.57;;;18.90;98.00;;;;;;5031762;28;20473;-72
2022/06/11 07:22:50;;;;;;;2.10;1.53;;;19.10;98.00;;;;;;5031754;28;20462;-72
2022/06/11 07:25:18;;;;;;;2.43;2.00;;;19.30;98.00;;;;;;5033444;28;20932;-72
2022/06/11 07:27:50;;;;;;;3.43;1.77;;;19.40;98.00;;;;;;5017863;28;20825;-72
2022/06/11 07:30:21;;;;;;;3.73;2.07;;;19.40;98.00;;;;;;5035455;28;20490;-72
2022/06/11 07:32:56;;;;;;;2.60;2.03;;;19.50;98.00;;;;;;5028619;28;20459;-72
2022/06/11 07:35:24;;;;;;;2.27;1.60;;;19.50;98.00;;;;;;5015382;28;20532;-72
2022/06/11 07:37:54;;;;;;;1.97;1.70;;;19.70;98.00;;;;;;5014679;28;20487;-72
2022/06/11 07:40:24;;;;;;;5.20;2.00;;;19.70;98.00;;;;;;4997543;28;20460;-72
2022/06/11 07:42:51;;;;;;;2.93;2.10;;;19.80;98.00;;;;;;5014490;28;20459;-72
2022/06/11 07:45:19;;;;;;;2.20;1.70;;;19.90;98.00;;;;;;5013920;28;20513;-72
2022/06/11 07:47:55;;;;;;;3.03;1.97;;;19.90;98.00;;;;;;5014543;28;20463;-72
2022/06/11 07:50:26;;;;;;;2.27;1.97;;;20.00;98.00;;;;;;5014682;28;20935;-72
2022/06/11 07:52:54;;;;;;;2.20;2.07;;;20.20;98.00;;;;;;5014431;28;20481;-72
2022/06/11 07:55:21;;;;;;;1.93;1.60;;;20.40;98.00;;;;;;5014491;28;20551;-72
2022/06/11 07:57:50;;;;;;;1.90;1.70;;;20.60;98.00;;;;;;5014212;28;20479;-72
2022/06/11 08:00:21;;;;;;;1.97;1.83;;;20.70;98.00;;;;;;5014329;28;20461;-72
2022/06/11 08:02:49;;;;;;;10.50;2.30;;;20.80;98.00;;;;;;5014145;28;20467;-72
2022/06/11 08:05:17;;;;;;;2.63;1.70;;;20.90;98.00;;;;;;5014256;28;20459;-72
2022/06/11 08:07:46;;;;;;;3.40;2.13;;;21.00;98.00;;;;;;5014456;28;20459;-72
2022/06/11 08:10:15;;;;;;;2.60;1.60;;;21.10;98.00;;;;;;5014110;28;20451;-72
2022/06/11 08:12:42;;;;;;;3.23;2.07;;;21.30;98.00;;;;;;5014125;28;20458;-72
2022/06/11 08:15:11;;;;;;;5.90;2.50;;;21.50;98.00;;;;;;5014054;28;20459;-72
2022/06/11 08:17:40;;;;;;;5.00;2.10;;;21.50;98.00;;;;;;5013786;28;20487;-72
2022/06/11 08:20:09;;;;;;;2.23;1.77;;;21.60;98.00;;;;;;5014121;28;20466;-72
2022/06/11 08:22:36;;;;;;;3.10;2.20;;;21.60;98.00;;;;;;5014339;28;20455;-72
2022/06/11 08:25:05;;;;;;;4.73;2.40;;;21.70;98.00;;;;;;5014194;28;20459;-72
2022/06/11 08:27:33;;;;;;;2.87;2.17;;;21.70;98.00;;;;;;5013986;28;20531;-72
2022/06/11 08:30:00;;;;;;;3.17;2.10;;;21.90;98.00;;;;;;5013986;28;20458;-72
2022/06/11 08:32:27;;;;;;;2.70;1.80;;;22.00;98.00;;;;;;5013716;28;20819;-72
2022/06/11 08:34:54;;;;;;;3.90;2.20;;;22.10;98.00;;;;;;5014067;28;20805;-72
2022/06/11 08:37:22;;;;;;;2.27;2.00;;;22.30;98.00;;;;;;5013758;28;20483;-72
2022/06/11 08:39:50;;;;;;;1.90;1.80;;;22.40;97.90;;;;;;5013771;28;20514;-72
2022/06/11 08:42:33;;;;;;;3.10;1.87;;;22.50;97.70;;;;;;5013424;28;20455;-72
2022/06/11 08:45:04;;;;;;;2.73;2.00;;;22.60;96.20;;;;;;5013284;28;20462;-72
2022/06/11 08:47:40;;;;;;;2.83;2.50;;;22.80;96.50;;;;;;5013707;28;20460;-72
2022/06/11 08:50:13;;;;;;;3.23;2.07;;;22.90;95.10;;;;;;5013317;28;20976;-72
2022/06/11 08:52:42;;;;;;;2.50;1.67;;;23.00;95.00;;;;;;4996687;28;20463;-72
2022/06/11 08:55:09;;;;;;;3.73;2.20;;;23.10;93.30;;;;;;4996297;28;20475;-73
2022/06/11 08:57:47;;;;;;;2.80;1.90;;;23.20;91.30;;;;;;5013740;28;20494;-72
2022/06/11 09:00:18;;;;;;;2.30;1.50;;;23.30;89.40;;;;;;5014100;28;20470;-73
2022/06/11 09:03:01;;;;;;;3.73;1.87;;;23.40;89.00;;;;;;5013804;28;20969;-72
2022/06/11 09:05:42;;;;;;;3.00;2.07;;;23.60;89.90;;;;;;5013724;28;20464;-72
2022/06/11 09:08:26;;;;;;;2.60;1.70;;;23.80;89.40;;;;;;5013578;28;20473;-72
2022/06/11 09:11:12;;;;;;;2.90;1.70;;;23.90;87.80;;;;;;5013686;28;20463;-73
2022/06/11 09:14:12;;;;;;;1.70;1.60;;;24.10;89.50;;;;;;5012676;28;20467;-73
2022/06/11 09:16:56;;;;;;;1.77;1.60;;;24.20;86.20;;;;;;4996626;28;20538;-73
2022/06/11 09:19:40;;;;;;;1.70;1.50;;;24.30;86.50;;;;;;5013747;28;20459;-73
2022/06/11 09:22:22;;;;;;;2.70;1.70;;;24.40;85.50;;;;;;5013202;28;20471;-73
2022/06/11 09:25:14;;;;;;;1.70;1.40;;;24.40;86.40;;;;;;5013667;28;20467;-74
2022/06/11 09:27:46;;;;;;;2.27;1.70;;;24.40;83.60;;;;;;5013246;28;20486;-74
2022/06/11 09:30:19;;;;;;;3.17;1.90;;;24.60;84.40;;;;;;5013490;28;20456;-73
2022/06/11 09:32:51;;;;;;;2.70;1.70;;;24.70;83.50;;;;;;4995719;28;20954;-74
2022/06/11 09:35:21;;;;;;;2.23;1.70;;;24.90;87.10;;;;;;5013552;28;20456;-74
2022/06/11 09:38:03;;;;;;;1.80;1.60;;;24.90;81.60;;;;;;5013060;28;20491;-74
2022/06/11 09:40:37;;;;;;;2.07;1.60;;;24.90;84.40;;;;;;5013465;28;21005;-74
2022/06/11 09:43:33;;;;;;;4.03;2.00;;;25.00;82.20;;;;;;5012621;28;20466;-74
2022/06/11 09:46:12;;;;;;;2.50;1.70;;;25.10;80.90;;;;;;5013139;28;20455;-74
2022/06/11 09:48:56;;;;;;;1.90;1.60;;;25.30;81.70;;;;;;5012139;28;20455;-76
2022/06/11 09:51:32;;;;;;;1.70;1.60;;;25.10;81.50;;;;;;4997008;28;20974;-75
2022/06/11 09:54:19;;;;;;;1.70;1.50;;;24.90;81.30;;;;;;5012591;28;20467;-74
2022/06/11 09:56:50;;;;;;;1.67;1.67;;;25.00;80.90;;;;;;5012725;28;20464;-76
2022/06/11 09:59:28;;;;;;;2.50;1.73;;;25.00;82.00;;;;;;5012929;28;20463;-75
2022/06/11 10:02:02;;;;;;;2.60;1.90;;;25.30;83.20;;;;;;5012720;28;21153;-75
2022/06/11 10:04:32;;;;;;;1.97;1.70;;;25.50;81.30;;;;;;5012935;28;20460;-75
2022/06/11 10:07:05;;;;;;;2.50;1.90;;;25.60;80.90;;;;;;5012820;28;20459;-75
2022/06/11 10:09:37;;;;;;;1.90;1.73;;;25.90;80.70;;;;;;5012663;28;20513;-75
2022/06/11 10:12:15;;;;;;;2.17;1.80;;;26.10;82.60;;;;;;5012651;28;20522;-75
2022/06/11 10:14:50;;;;;;;2.47;1.87;;;26.40;83.20;;;;;;5013113;28;20462;-77
2022/06/11 10:17:23;;;;;;;2.13;1.83;;;26.50;78.80;;;;;;5006344;28;21069;-78
2022/06/11 10:19:56;;;;;;;4.63;2.03;;;26.50;80.70;;;;;;5009264;28;20463;-77
2022/06/11 10:22:27;;;;;;;4.00;2.20;;;26.50;83.10;;;;;;5003747;28;20471;-76
2022/06/11 10:25:05;;;;;;;2.20;2.00;;;26.60;81.10;;;;;;5012428;28;20448;-78
2022/06/11 10:27:37;;;;;;;2.60;2.10;;;26.40;81.80;;;;;;5012550;28;20466;-65
2022/06/11 10:30:17;;;;;;;2.37;1.97;;;26.40;81.90;;;;;;5012515;28;20526;-75
2022/06/11 10:32:48;;;;;;;2.17;1.60;;;26.60;80.80;;;;;;5012622;28;21122;-75
2022/06/11 10:35:21;;;;;;;3.20;1.90;;;26.60;78.10;;;;;;5012642;28;20464;-76
2022/06/11 10:37:55;;;;;;;2.10;1.70;;;26.50;79.80;;;;;;5012576;28;20487;-76
2022/06/11 10:40:31;;;;;;;7.03;1.93;;;26.70;80.80;;;;;;5012613;28;20466;-75
2022/06/11 10:43:04;;;;;;;3.10;2.07;;;26.80;79.40;;;;;;5012579;28;20455;-75
2022/06/11 10:45:35;;;;;;;2.53;1.90;;;26.80;80.90;;;;;;5012150;28;20460;-75
2022/06/11 10:48:10;;;;;;;2.40;2.00;;;26.90;78.10;;;;;;5012156;28;20879;-66
2022/06/11 10:50:38;;;;;;;2.73;1.70;;;27.00;77.80;;;;;;5011987;28;20465;-69
2022/06/11 10:53:12;;;;;;;2.37;1.90;;;27.20;78.80;;;;;;5012074;28;20455;-65
2022/06/11 10:55:44;;;;;;;2.00;1.83;;;27.30;76.70;;;;;;5012085;28;20482;-65
2022/06/11 10:58:16;;;;;;;2.13;1.93;;;27.40;79.30;;;;;;5011830;28;20578;-65
2022/06/11 11:00:51;;;;;;;3.17;1.90;;;27.70;77.70;;;;;;5014506;28;20554;-65
2022/06/11 11:03:29;;;;;;;3.07;2.10;;;27.90;79.50;;;;;;5016395;28;20813;-65
2022/06/11 11:06:02;;;;;;;2.53;2.20;;;28.00;75.10;;;;;;5016078;28;20455;-65
2022/06/11 11:08:30;;;;;;;2.77;1.90;;;28.20;79.00;;;;;;5016068;28;20478;-65
2022/06/11 11:10:59;;;;;;;1.77;1.67;;;28.30;77.20;;;;;;5015984;28;20466;-66
2022/06/11 11:13:35;;;;;;;1.80;1.60;;;28.40;74.10;;;;;;5015837;28;20455;-67
2022/06/11 11:16:15;;;;;;;2.73;1.80;;;28.60;75.90;;;;;;5016095;28;20461;-66
2022/06/11 11:18:48;;;;;;;4.83;2.50;;;28.80;74.60;;;;;;5015692;28;20495;-68
2022/06/11 11:21:23;;;;;;;2.40;1.90;;;28.70;75.00;;;;;;5015977;28;20451;-71
2022/06/11 11:23:51;;;;;;;3.60;1.80;;;29.00;76.30;;;;;;5015646;28;20461;-70
2022/06/11 11:26:28;;;;;;;2.07;1.83;;;28.90;73.70;;;;;;5015908;28;20455;-71
2022/06/11 11:29:01;;;;;;;2.27;1.93;;;28.90;72.00;;;;;;5015692;28;20465;-71
2022/06/11 11:31:31;;;;;;;3.47;1.67;;;29.10;74.80;;;;;;5015579;28;20459;-70
2022/06/11 11:34:04;;;;;;;2.57;1.83;;;29.20;71.50;;;;;;5015777;28;20874;-73
2022/06/11 11:36:34;;;;;;;2.80;2.43;;;29.50;75.80;;;;;;5030116;28;20459;-72
2022/06/11 11:39:24;;;;;;;2.87;1.90;;;29.80;74.90;;;;;;5022092;28;20518;-68
2022/06/11 11:42:17;;;;;;;3.00;2.40;;;30.00;74.70;;;;;;5015720;28;20534;-68
2022/06/11 11:44:49;;;;;;;2.70;2.27;;;30.20;74.30;;;;;;5015514;28;20462;-73
2022/06/11 11:47:25;;;;;;;2.47;2.10;;;30.50;71.80;;;;;;5015606;28;20459;-64
2022/06/11 11:50:04;;;;;;;2.50;2.03;;;30.50;71.10;;;;;;5015091;28;20462;-66
2022/06/11 11:52:32;;;;;;;3.40;2.07;;;30.30;73.80;;;;;;5015112;28;20455;-69
2022/06/11 11:55:11;;;;;;;2.53;2.00;;;30.20;72.30;;;;;;5014886;28;20965;-67
2022/06/11 11:57:39;;;;;;;4.43;2.47;;;30.30;71.80;;;;;;5014916;28;20463;-67
2022/06/11 12:00:23;;;;;;;2.23;2.00;;;30.40;69.80;;;;;;5015098;28;20447;-69
2022/06/11 12:02:55;;;;;;;2.60;2.03;;;30.70;74.80;;;;;;5015132;28;20458;-67
2022/06/11 12:05:27;;;;;;;2.43;1.93;;;31.00;71.10;;;;;;5015091;28;20805;-69
2022/06/11 12:07:57;;;;;;;3.27;2.27;;;31.10;72.50;;;;;;5014914;28;20452;-67
2022/06/11 12:10:35;;;;;;;3.47;2.37;;;31.30;69.60;;;;;;5014529;28;20455;-68
2022/06/11 12:13:04;;;;;;;3.67;2.30;;;31.40;70.30;;;;;;5014776;28;20491;-69
2022/06/11 12:15:34;;;;;;;5.17;2.40;;;31.30;68.90;;;;;;5014742;28;20467;-70
2022/06/11 12:18:06;;;;;;;4.20;2.40;;;31.10;69.00;;;;;;5014703;28;20570;-73
2022/06/11 12:20:38;;;;;;;2.70;1.93;;;31.20;70.60;;;;;;5014906;28;20459;-74
2022/06/11 12:23:23;;;;;;;2.60;2.10;;;31.50;71.20;;;;;;5014576;28;20463;-74
2022/06/11 12:25:56;;;;;;;2.50;1.80;;;31.80;70.50;;;;;;5013782;28;20867;-74
2022/06/11 12:28:29;;;;;;;2.57;2.13;;;32.00;69.90;;;;;;5014476;28;20452;-74
2022/06/11 12:30:56;;;;;;;2.13;2.00;;;32.10;67.90;;;;;;5014720;28;20475;-74
2022/06/11 12:33:25;;;;;;;2.83;2.27;;;32.20;66.90;;;;;;5014544;28;20455;-74
2022/06/11 12:36:03;;;;;;;3.03;2.30;;;32.20;67.70;;;;;;5014593;28;20455;-74
2022/06/11 12:38:45;;;;;;;2.53;2.13;;;32.30;68.00;;;;;;5014583;28;20549;-74
2022/06/11 12:41:31;;;;;;;2.07;1.90;;;32.30;69.40;;;;;;5014343;28;20462;-74
2022/06/11 12:44:18;;;;;;;2.13;2.00;;;32.30;68.70;;;;;;4997951;28;20458;-74
2022/06/11 12:46:54;;;;;;;2.50;2.07;;;32.20;67.40;;;;;;5014401;28;20459;-73
2022/06/11 12:49:29;;;;;;;3.50;1.97;;;32.20;68.00;;;;;;5013589;28;20462;-74
2022/06/11 12:52:13;;;;;;;2.60;2.00;;;32.00;68.70;;;;;;5014122;28;20465;-74
2022/06/11 12:54:55;;;;;;;4.30;2.13;;;32.20;69.70;;;;;;5014144;28;20498;-74
2022/06/11 12:57:45;;;;;;;3.40;2.50;;;32.40;68.10;;;;;;5012904;28;20467;-74
2022/06/11 13:00:45;;;;;;;2.33;1.80;;;32.70;65.40;;;;;;5013777;28;20496;-74
2022/06/11 13:03:39;;;;;;;2.67;2.20;;;32.90;67.60;;;;;;5013913;28;20494;-75
2022/06/11 13:06:18;;;;;;;2.43;2.00;;;32.80;67.30;;;;;;5013708;28;20464;-73
2022/06/11 13:09:01;;;;;;;3.20;1.93;;;32.90;66.30;;;;;;5013750;28;20458;-74
2022/06/11 13:11:37;;;;;;;3.03;2.07;;;33.00;66.50;;;;;;4991594;28;20459;-74
2022/06/11 13:14:29;;;;;;;4.73;2.33;;;33.00;66.00;;;;;;5012165;28;20471;-74
2022/06/11 13:17:04;;;;;;;3.20;2.30;;;32.20;65.00;;;;;;5003517;28;20541;-73
2022/06/11 13:19:40;;;;;;;2.70;1.90;;;31.50;66.70;;;;;;5013794;28;20491;-74